sensor_id;sensor_type;location;lat;lon;timestamp;temperature;humidity
21207;DHT22;10761;48.532;8.026;2023-09-12T00:00:54;20.20;1.00
21207;DHT22;10761;48.532;8.026;2023-09-12T00:03:21;20.10;1.00
21207;DHT22;10761;48.532;8.026;2023-09-12T00:05:53;20.10;1.00
21207;DHT22;10761;48.532;8.026;2023-09-12T00:08:19;20.00;1.00
21207;DHT22;10761;48.532;8.026;2023-09-12T00:10:45;19.90;1.00
21207;DHT22;10761;48.532;8.026;2023-09-12T00:13:10;19.90;1.00
21207;DHT22;10761;48.532;8.026;2023-09-12T00:15:36;20.00;4.30
21207;DHT22;10761;48.532;8.026;2023-09-12T00:18:01;19.90;6.80
21207;DHT22;10761;48.532;8.026;2023-09-12T00:20:28;19.90;1.00
21207;DHT22;10761;48.532;8.026;2023-09-12T00:22:53;19.90;1.00
21207;DHT22;10761;48.532;8.026;2023-09-12T00:25:22;19.70;14.50
21207;DHT22;10761;48.532;8.026;2023-09-12T00:27:48;19.70;56.40
21207;DHT22;10761;48.532;8.026;2023-09-12T00:30:14;19.70;99.90
21207;DHT22;10761;48.532;8.026;2023-09-12T00:32:41;19.70;99.90
21207;DHT22;10761;48.532;8.026;2023-09-12T00:35:06;19.70;99.90
21207;DHT22;10761;48.532;8.026;2023-09-12T00:37:32;19.70;99.90
21207;DHT22;10761;48.532;8.026;2023-09-12T00:39:58;19.70;99.90
21207;DHT22;10761;48.532;8.026;2023-09-12T00:42:26;19.70;99.90
21207;DHT22;10761;48.532;8.026;2023-09-12T00:44:52;19.80;1.00
21207;DHT22;10761;48.532;8.026;2023-09-12T00:47:19;19.80;1.00
21207;DHT22;10761;48.532;8.026;2023-09-12T00:49:45;19.90;1.00
21207;DHT22;10761;48.532;8.026;2023-09-12T00:52:12;19.90;1.00
21207;DHT22;10761;48.532;8.026;2023-09-12T00:54:39;19.90;1.00
21207;DHT22;10761;48.532;8.026;2023-09-12T00:57:06;20.00;1.00
21207;DHT22;10761;48.532;8.026;2023-09-12T00:59:32;20.10;1.00
21207;DHT22;10761;48.532;8.026;2023-09-12T01:01:58;20.10;1.00
21207;DHT22;10761;48.532;8.026;2023-09-12T01:04:25;20.10;1.00
21207;DHT22;10761;48.532;8.026;2023-09-12T01:06:51;20.10;1.00
21207;DHT22;10761;48.532;8.026;2023-09-12T01:09:17;20.10;1.00
21207;DHT22;10761;48.532;8.026;2023-09-12T01:11:43;20.10;1.00
21207;DHT22;10761;48.532;8.026;2023-09-12T01:14:09;20.00;1.00
21207;DHT22;10761;48.532;8.026;2023-09-12T01:16:35;20.00;1.00
21207;DHT22;10761;48.532;8.026;2023-09-12T01:19:01;20.00;1.00
21207;DHT22;10761;48.532;8.026;2023-09-12T01:22:03;20.10;1.00
21207;DHT22;10761;48.532;8.026;2023-09-12T01:27:45;20.10;1.00
21207;DHT22;10761;48.532;8.026;2023-09-12T01:30:12;20.00;1.00
21207;DHT22;10761;48.532;8.026;2023-09-12T01:32:42;20.00;1.00
21207;DHT22;10761;48.532;8.026;2023-09-12T01:35:08;19.90;1.00
21207;DHT22;10761;48.532;8.026;2023-09-12T01:37:33;19.90;1.00
21207;DHT22;10761;48.532;8.026;2023-09-12T01:39:59;19.90;1.00
21207;DHT22;10761;48.532;8.026;2023-09-12T01:42:30;19.90;1.00
21207;DHT22;10761;48.532;8.026;2023-09-12T01:44:56;19.90;1.00
21207;DHT22;10761;48.532;8.026;2023-09-12T01:47:24;19.70;1.00
21207;DHT22;10761;48.532;8.026;2023-09-12T01:49:53;19.70;1.00
21207;DHT22;10761;48.532;8.026;2023-09-12T01:52:19;19.60;1.00
21207;DHT22;10761;48.532;8.026;2023-09-12T01:54:47;19.50;1.00
21207;DHT22;10761;48.532;8.026;2023-09-12T01:57:13;19.40;1.00
21207;DHT22;10761;48.532;8.026;2023-09-12T01:59:40;19.40;1.00
21207;DHT22;10761;48.532;8.026;2023-09-12T02:02:05;19.30;1.00
21207;DHT22;10761;48.532;8.026;2023-09-12T02:04:32;19.30;1.00
21207;DHT22;10761;48.532;8.026;2023-09-12T02:06:58;19.30;2.90
21207;DHT22;10761;48.532;8.026;2023-09-12T02:09:24;19.30;10.90
21207;DHT22;10761;48.532;8.026;2023-09-12T02:11:50;19.20;1.00
21207;DHT22;10761;48.532;8.026;2023-09-12T02:14:16;19.10;25.80
21207;DHT22;10761;48.532;8.026;2023-09-12T02:16:43;19.00;25.40
21207;DHT22;10761;48.532;8.026;2023-09-12T02:19:09;19.00;94.20
21207;DHT22;10761;48.532;8.026;2023-09-12T02:21:35;18.90;48.80
21207;DHT22;10761;48.532;8.026;2023-09-12T02:24:00;18.90;90.30
21207;DHT22;10761;48.532;8.026;2023-09-12T02:26:26;18.90;88.60
21207;DHT22;10761;48.532;8.026;2023-09-12T02:28:52;18.90;54.90
21207;DHT22;10761;48.532;8.026;2023-09-12T02:31:17;18.80;99.90
21207;DHT22;10761;48.532;8.026;2023-09-12T02:33:43;18.70;99.90
21207;DHT22;10761;48.532;8.026;2023-09-12T02:36:08;18.70;99.90
21207;DHT22;10761;48.532;8.026;2023-09-12T02:38:34;18.60;99.90
21207;DHT22;10761;48.532;8.026;2023-09-12T02:40:59;18.60;99.90
21207;DHT22;10761;48.532;8.026;2023-09-12T02:43:25;18.70;99.90
21207;DHT22;10761;48.532;8.026;2023-09-12T02:45:51;18.70;99.90
21207;DHT22;10761;48.532;8.026;2023-09-12T02:48:16;18.70;99.90
21207;DHT22;10761;48.532;8.026;2023-09-12T02:50:42;18.80;99.90
21207;DHT22;10761;48.532;8.026;2023-09-12T02:53:07;18.80;99.90
21207;DHT22;10761;48.532;8.026;2023-09-12T02:55:33;18.80;99.90
21207;DHT22;10761;48.532;8.026;2023-09-12T02:57:59;18.80;99.90
21207;DHT22;10761;48.532;8.026;2023-09-12T03:00:24;18.70;99.90
21207;DHT22;10761;48.532;8.026;2023-09-12T03:02:50;18.70;99.90
21207;DHT22;10761;48.532;8.026;2023-09-12T03:05:15;18.70;99.90
21207;DHT22;10761;48.532;8.026;2023-09-12T03:07:41;18.70;99.90
21207;DHT22;10761;48.532;8.026;2023-09-12T03:10:07;18.60;99.90
21207;DHT22;10761;48.532;8.026;2023-09-12T03:12:33;18.60;99.90
21207;DHT22;10761;48.532;8.026;2023-09-12T03:15:00;18.50;99.90
21207;DHT22;10761;48.532;8.026;2023-09-12T03:17:28;18.60;99.90
21207;DHT22;10761;48.532;8.026;2023-09-12T03:19:53;18.60;99.90
21207;DHT22;10761;48.532;8.026;2023-09-12T03:22:19;18.50;99.90
21207;DHT22;10761;48.532;8.026;2023-09-12T03:24:45;18.50;99.90
21207;DHT22;10761;48.532;8.026;2023-09-12T03:27:10;18.50;99.90
21207;DHT22;10761;48.532;8.026;2023-09-12T03:29:36;18.40;99.90
21207;DHT22;10761;48.532;8.026;2023-09-12T03:32:01;18.40;99.90
21207;DHT22;10761;48.532;8.026;2023-09-12T03:34:27;18.40;99.90
21207;DHT22;10761;48.532;8.026;2023-09-12T03:36:52;18.40;99.90
21207;DHT22;10761;48.532;8.026;2023-09-12T03:39:18;18.50;99.90
21207;DHT22;10761;48.532;8.026;2023-09-12T03:41:44;18.50;99.90
21207;DHT22;10761;48.532;8.026;2023-09-12T03:44:09;18.60;99.90
21207;DHT22;10761;48.532;8.026;2023-09-12T03:46:35;18.70;99.90
21207;DHT22;10761;48.532;8.026;2023-09-12T03:49:00;18.60;99.90
21207;DHT22;10761;48.532;8.026;2023-09-12T03:51:26;18.60;99.90
21207;DHT22;10761;48.532;8.026;2023-09-12T03:53:51;18.60;99.90
21207;DHT22;10761;48.532;8.026;2023-09-12T03:56:17;18.50;99.90
21207;DHT22;10761;48.532;8.026;2023-09-12T03:58:45;18.50;99.90
21207;DHT22;10761;48.532;8.026;2023-09-12T04:01:11;18.40;99.90
21207;DHT22;10761;48.532;8.026;2023-09-12T04:03:36;18.40;99.90
21207;DHT22;10761;48.532;8.026;2023-09-12T04:06:02;18.30;99.90
21207;DHT22;10761;48.532;8.026;2023-09-12T04:08:27;18.30;99.90
21207;DHT22;10761;48.532;8.026;2023-09-12T04:10:53;18.20;99.90
21207;DHT22;10761;48.532;8.026;2023-09-12T04:13:18;18.30;99.90
21207;DHT22;10761;48.532;8.026;2023-09-12T04:15:44;18.30;99.90
21207;DHT22;10761;48.532;8.026;2023-09-12T04:18:10;18.40;99.90
21207;DHT22;10761;48.532;8.026;2023-09-12T04:20:35;18.40;99.90
21207;DHT22;10761;48.532;8.026;2023-09-12T04:23:01;18.40;99.90
21207;DHT22;10761;48.532;8.026;2023-09-12T04:25:31;18.40;99.90
21207;DHT22;10761;48.532;8.026;2023-09-12T04:27:56;18.30;99.90
21207;DHT22;10761;48.532;8.026;2023-09-12T04:30:22;18.40;99.90
21207;DHT22;10761;48.532;8.026;2023-09-12T04:32:48;18.50;99.90
21207;DHT22;10761;48.532;8.026;2023-09-12T04:35:14;18.50;99.90
21207;DHT22;10761;48.532;8.026;2023-09-12T04:37:39;18.50;99.90
21207;DHT22;10761;48.532;8.026;2023-09-12T04:40:07;18.50;99.90
21207;DHT22;10761;48.532;8.026;2023-09-12T04:42:33;18.50;99.90
21207;DHT22;10761;48.532;8.026;2023-09-12T04:44:58;18.50;99.90
21207;DHT22;10761;48.532;8.026;2023-09-12T04:47:24;18.40;99.90
21207;DHT22;10761;48.532;8.026;2023-09-12T04:49:49;18.40;99.90
21207;DHT22;10761;48.532;8.026;2023-09-12T04:52:15;18.40;99.90
21207;DHT22;10761;48.532;8.026;2023-09-12T04:54:40;18.40;99.90
21207;DHT22;10761;48.532;8.026;2023-09-12T04:57:07;18.40;99.90
21207;DHT22;10761;48.532;8.026;2023-09-12T04:59:33;18.40;99.90
21207;DHT22;10761;48.532;8.026;2023-09-12T05:01:58;18.40;99.90
21207;DHT22;10761;48.532;8.026;2023-09-12T05:04:24;18.30;99.90
21207;DHT22;10761;48.532;8.026;2023-09-12T05:06:50;18.30;99.90
21207;DHT22;10761;48.532;8.026;2023-09-12T05:09:15;18.30;99.90
21207;DHT22;10761;48.532;8.026;2023-09-12T05:11:41;18.30;99.90
21207;DHT22;10761;48.532;8.026;2023-09-12T05:14:07;18.20;99.90
21207;DHT22;10761;48.532;8.026;2023-09-12T05:16:32;18.20;99.90
21207;DHT22;10761;48.532;8.026;2023-09-12T05:18:58;18.30;99.90
21207;DHT22;10761;48.532;8.026;2023-09-12T05:21:23;18.30;99.90
21207;DHT22;10761;48.532;8.026;2023-09-12T05:23:49;18.20;99.90
21207;DHT22;10761;48.532;8.026;2023-09-12T05:26:14;18.20;99.90
21207;DHT22;10761;48.532;8.026;2023-09-12T05:28:40;18.10;99.90
21207;DHT22;10761;48.532;8.026;2023-09-12T05:31:06;18.10;99.90
21207;DHT22;10761;48.532;8.026;2023-09-12T05:33:31;18.10;99.90
21207;DHT22;10761;48.532;8.026;2023-09-12T05:35:58;18.10;99.90
21207;DHT22;10761;48.532;8.026;2023-09-12T05:38:23;18.10;99.90
21207;DHT22;10761;48.532;8.026;2023-09-12T05:40:49;18.10;99.90
21207;DHT22;10761;48.532;8.026;2023-09-12T05:43:16;18.10;99.90
21207;DHT22;10761;48.532;8.026;2023-09-12T05:45:42;18.10;99.90
21207;DHT22;10761;48.532;8.026;2023-09-12T05:48:07;18.10;99.90
21207;DHT22;10761;48.532;8.026;2023-09-12T05:50:36;18.20;99.90
21207;DHT22;10761;48.532;8.026;2023-09-12T05:53:02;18.20;99.90
21207;DHT22;10761;48.532;8.026;2023-09-12T05:55:27;18.20;99.90
21207;DHT22;10761;48.532;8.026;2023-09-12T05:57:53;18.30;99.90
21207;DHT22;10761;48.532;8.026;2023-09-12T06:00:19;18.40;99.90
21207;DHT22;10761;48.532;8.026;2023-09-12T06:02:49;18.40;99.90
21207;DHT22;10761;48.532;8.026;2023-09-12T06:05:15;18.50;99.90
21207;DHT22;10761;48.532;8.026;2023-09-12T06:07:41;18.50;99.90
21207;DHT22;10761;48.532;8.026;2023-09-12T06:10:10;18.70;99.90
21207;DHT22;10761;48.532;8.026;2023-09-12T06:12:36;18.80;99.90
21207;DHT22;10761;48.532;8.026;2023-09-12T06:15:05;19.00;99.90
21207;DHT22;10761;48.532;8.026;2023-09-12T06:17:31;19.10;99.90
21207;DHT22;10761;48.532;8.026;2023-09-12T06:19:56;19.30;99.90
21207;DHT22;10761;48.532;8.026;2023-09-12T06:22:22;19.50;1.00
21207;DHT22;10761;48.532;8.026;2023-09-12T06:24:51;19.80;1.00
21207;DHT22;10761;48.532;8.026;2023-09-12T06:27:17;20.20;1.00
21207;DHT22;10761;48.532;8.026;2023-09-12T06:29:47;20.50;1.00
21207;DHT22;10761;48.532;8.026;2023-09-12T06:32:14;21.10;99.90
21207;DHT22;10761;48.532;8.026;2023-09-12T06:34:40;21.40;99.90
21207;DHT22;10761;48.532;8.026;2023-09-12T06:37:06;21.90;1.00
21207;DHT22;10761;48.532;8.026;2023-09-12T06:39:32;22.20;1.00
21207;DHT22;10761;48.532;8.026;2023-09-12T06:41:57;22.40;36.30
21207;DHT22;10761;48.532;8.026;2023-09-12T06:44:23;22.60;99.90
21207;DHT22;10761;48.532;8.026;2023-09-12T06:46:48;23.00;1.00
21207;DHT22;10761;48.532;8.026;2023-09-12T06:49:14;23.30;1.00
21207;DHT22;10761;48.532;8.026;2023-09-12T06:51:40;23.60;1.00
21207;DHT22;10761;48.532;8.026;2023-09-12T06:54:05;23.80;1.00
21207;DHT22;10761;48.532;8.026;2023-09-12T06:56:31;24.00;1.00
21207;DHT22;10761;48.532;8.026;2023-09-12T06:58:57;24.20;1.00
21207;DHT22;10761;48.532;8.026;2023-09-12T07:01:24;24.60;99.90
21207;DHT22;10761;48.532;8.026;2023-09-12T07:03:50;24.80;1.00
21207;DHT22;10761;48.532;8.026;2023-09-12T07:06:19;24.60;1.00
21207;DHT22;10761;48.532;8.026;2023-09-12T07:08:44;24.40;99.90
21207;DHT22;10761;48.532;8.026;2023-09-12T07:11:10;24.10;1.00
21207;DHT22;10761;48.532;8.026;2023-09-12T07:13:36;23.90;1.00
21207;DHT22;10761;48.532;8.026;2023-09-12T07:16:01;23.70;1.00
21207;DHT22;10761;48.532;8.026;2023-09-12T07:18:30;23.40;99.90
21207;DHT22;10761;48.532;8.026;2023-09-12T07:21:02;23.30;1.00
21207;DHT22;10761;48.532;8.026;2023-09-12T07:23:29;23.30;1.00
21207;DHT22;10761;48.532;8.026;2023-09-12T07:25:57;23.30;99.90
21207;DHT22;10761;48.532;8.026;2023-09-12T07:28:26;23.30;1.00
21207;DHT22;10761;48.532;8.026;2023-09-12T07:30:56;23.30;1.00
21207;DHT22;10761;48.532;8.026;2023-09-12T07:33:21;23.30;1.00
21207;DHT22;10761;48.532;8.026;2023-09-12T07:35:48;23.50;1.00
21207;DHT22;10761;48.532;8.026;2023-09-12T07:38:14;23.80;1.00
21207;DHT22;10761;48.532;8.026;2023-09-12T07:40:43;24.10;99.90
21207;DHT22;10761;48.532;8.026;2023-09-12T07:43:09;24.40;1.00
21207;DHT22;10761;48.532;8.026;2023-09-12T07:45:35;24.70;99.90
21207;DHT22;10761;48.532;8.026;2023-09-12T07:48:07;25.00;96.80
21207;DHT22;10761;48.532;8.026;2023-09-12T07:50:33;25.10;1.00
21207;DHT22;10761;48.532;8.026;2023-09-12T07:52:59;25.30;99.90
21207;DHT22;10761;48.532;8.026;2023-09-12T07:55:24;25.40;99.90
21207;DHT22;10761;48.532;8.026;2023-09-12T07:57:50;25.60;1.00
21207;DHT22;10761;48.532;8.026;2023-09-12T08:00:15;26.00;1.00
21207;DHT22;10761;48.532;8.026;2023-09-12T08:02:42;26.40;1.00
21207;DHT22;10761;48.532;8.026;2023-09-12T08:05:08;27.20;1.00
21207;DHT22;10761;48.532;8.026;2023-09-12T08:07:34;27.50;1.00
21207;DHT22;10761;48.532;8.026;2023-09-12T08:10:00;27.60;1.00
21207;DHT22;10761;48.532;8.026;2023-09-12T08:12:27;27.40;1.00
21207;DHT22;10761;48.532;8.026;2023-09-12T08:14:54;27.60;1.00
21207;DHT22;10761;48.532;8.026;2023-09-12T08:17:20;28.00;1.00
21207;DHT22;10761;48.532;8.026;2023-09-12T08:19:46;28.30;99.90
21207;DHT22;10761;48.532;8.026;2023-09-12T08:22:12;28.60;99.90
21207;DHT22;10761;48.532;8.026;2023-09-12T08:24:38;29.00;99.90
21207;DHT22;10761;48.532;8.026;2023-09-12T08:27:07;29.40;99.90
21207;DHT22;10761;48.532;8.026;2023-09-12T08:29:34;29.50;1.00
21207;DHT22;10761;48.532;8.026;2023-09-12T08:32:00;29.80;1.00
21207;DHT22;10761;48.532;8.026;2023-09-12T08:34:26;30.00;1.00
21207;DHT22;10761;48.532;8.026;2023-09-12T08:36:52;30.00;1.00
21207;DHT22;10761;48.532;8.026;2023-09-12T08:39:25;30.10;1.00
21207;DHT22;10761;48.532;8.026;2023-09-12T08:41:51;29.80;1.00
21207;DHT22;10761;48.532;8.026;2023-09-12T08:44:18;29.50;1.00
21207;DHT22;10761;48.532;8.026;2023-09-12T08:46:45;29.10;1.00
21207;DHT22;10761;48.532;8.026;2023-09-12T08:49:11;29.10;1.00
21207;DHT22;10761;48.532;8.026;2023-09-12T08:51:40;29.30;1.00
21207;DHT22;10761;48.532;8.026;2023-09-12T08:54:06;29.50;1.00
21207;DHT22;10761;48.532;8.026;2023-09-12T08:56:34;30.00;1.00
21207;DHT22;10761;48.532;8.026;2023-09-12T08:59:01;29.80;1.00
21207;DHT22;10761;48.532;8.026;2023-09-12T09:01:30;29.80;1.00
21207;DHT22;10761;48.532;8.026;2023-09-12T09:03:56;29.70;1.00
21207;DHT22;10761;48.532;8.026;2023-09-12T09:06:23;29.30;1.00
21207;DHT22;10761;48.532;8.026;2023-09-12T09:08:50;28.80;1.00
21207;DHT22;10761;48.532;8.026;2023-09-12T09:11:16;28.30;1.00
21207;DHT22;10761;48.532;8.026;2023-09-12T09:13:42;28.30;1.00
21207;DHT22;10761;48.532;8.026;2023-09-12T09:16:16;28.50;1.00
21207;DHT22;10761;48.532;8.026;2023-09-12T09:19:01;28.70;1.00
21207;DHT22;10761;48.532;8.026;2023-09-12T09:21:32;28.80;1.00
21207;DHT22;10761;48.532;8.026;2023-09-12T09:24:00;29.20;1.00
21207;DHT22;10761;48.532;8.026;2023-09-12T09:26:46;29.40;1.00
21207;DHT22;10761;48.532;8.026;2023-09-12T09:29:17;29.50;1.00
21207;DHT22;10761;48.532;8.026;2023-09-12T09:31:45;29.00;1.00
21207;DHT22;10761;48.532;8.026;2023-09-12T09:34:15;28.90;1.00
21207;DHT22;10761;48.532;8.026;2023-09-12T09:36:50;28.90;1.00
21207;DHT22;10761;48.532;8.026;2023-09-12T09:39:18;29.00;1.00
21207;DHT22;10761;48.532;8.026;2023-09-12T09:41:48;28.90;1.00
21207;DHT22;10761;48.532;8.026;2023-09-12T09:44:14;29.10;1.00
21207;DHT22;10761;48.532;8.026;2023-09-12T09:46:43;29.50;1.00
21207;DHT22;10761;48.532;8.026;2023-09-12T09:49:14;29.90;1.00
21207;DHT22;10761;48.532;8.026;2023-09-12T09:51:41;30.40;1.00
21207;DHT22;10761;48.532;8.026;2023-09-12T09:54:08;30.80;99.90
21207;DHT22;10761;48.532;8.026;2023-09-12T09:56:48;30.80;99.90
21207;DHT22;10761;48.532;8.026;2023-09-12T09:59:15;30.90;99.90
21207;DHT22;10761;48.532;8.026;2023-09-12T10:01:43;31.10;99.90
21207;DHT22;10761;48.532;8.026;2023-09-12T10:04:08;31.30;99.90
21207;DHT22;10761;48.532;8.026;2023-09-12T10:06:36;31.60;99.90
21207;DHT22;10761;48.532;8.026;2023-09-12T10:09:06;31.90;99.90
21207;DHT22;10761;48.532;8.026;2023-09-12T10:11:33;32.20;99.90
21207;DHT22;10761;48.532;8.026;2023-09-12T10:14:01;32.30;99.90
21207;DHT22;10761;48.532;8.026;2023-09-12T10:16:45;32.20;99.90
21207;DHT22;10761;48.532;8.026;2023-09-12T10:19:22;32.20;99.90
21207;DHT22;10761;48.532;8.026;2023-09-12T10:24:49;32.70;99.90
21207;DHT22;10761;48.532;8.026;2023-09-12T10:27:15;33.00;99.90
21207;DHT22;10761;48.532;8.026;2023-09-12T10:29:41;32.70;99.90
21207;DHT22;10761;48.532;8.026;2023-09-12T10:32:08;32.80;99.90
21207;DHT22;10761;48.532;8.026;2023-09-12T10:34:35;32.80;99.90
21207;DHT22;10761;48.532;8.026;2023-09-12T10:37:03;33.00;99.90
21207;DHT22;10761;48.532;8.026;2023-09-12T10:39:32;33.30;99.90
21207;DHT22;10761;48.532;8.026;2023-09-12T10:41:58;33.40;71.60
21207;DHT22;10761;48.532;8.026;2023-09-12T10:44:24;33.70;52.80
21207;DHT22;10761;48.532;8.026;2023-09-12T10:46:51;33.40;34.10
21207;DHT22;10761;48.532;8.026;2023-09-12T10:49:18;33.00;14.40
21207;DHT22;10761;48.532;8.026;2023-09-12T10:51:46;32.60;17.20
21207;DHT22;10761;48.532;8.026;2023-09-12T10:54:16;32.80;24.40
21207;DHT22;10761;48.532;8.026;2023-09-12T10:57:04;32.90;1.00
21207;DHT22;10761;48.532;8.026;2023-09-12T10:59:30;33.00;1.00
21207;DHT22;10761;48.532;8.026;2023-09-12T11:02:27;32.90;1.00
21207;DHT22;10761;48.532;8.026;2023-09-12T11:04:57;33.00;1.00
21207;DHT22;10761;48.532;8.026;2023-09-12T11:07:31;33.20;1.00
21207;DHT22;10761;48.532;8.026;2023-09-12T11:12:48;33.20;1.00
21207;DHT22;10761;48.532;8.026;2023-09-12T11:15:15;33.40;1.00
21207;DHT22;10761;48.532;8.026;2023-09-12T11:17:45;33.30;1.00
21207;DHT22;10761;48.532;8.026;2023-09-12T11:20:12;33.10;1.00
21207;DHT22;10761;48.532;8.026;2023-09-12T11:22:41;32.90;1.00
21207;DHT22;10761;48.532;8.026;2023-09-12T11:25:24;33.10;1.00
21207;DHT22;10761;48.532;8.026;2023-09-12T11:30:20;33.60;1.00
21207;DHT22;10761;48.532;8.026;2023-09-12T11:32:47;33.60;1.00
21207;DHT22;10761;48.532;8.026;2023-09-12T11:35:14;34.00;1.00
21207;DHT22;10761;48.532;8.026;2023-09-12T11:37:47;34.30;1.00
21207;DHT22;10761;48.532;8.026;2023-09-12T11:42:43;35.00;1.00
21207;DHT22;10761;48.532;8.026;2023-09-12T11:45:12;35.30;1.00
21207;DHT22;10761;48.532;8.026;2023-09-12T11:47:41;35.30;1.00
21207;DHT22;10761;48.532;8.026;2023-09-12T11:50:08;35.30;1.00
21207;DHT22;10761;48.532;8.026;2023-09-12T11:52:36;35.60;1.00
21207;DHT22;10761;48.532;8.026;2023-09-12T11:55:05;35.70;1.00
21207;DHT22;10761;48.532;8.026;2023-09-12T11:57:31;35.90;1.00
21207;DHT22;10761;48.532;8.026;2023-09-12T11:59:57;36.10;1.00
21207;DHT22;10761;48.532;8.026;2023-09-12T12:02:23;36.50;1.00
21207;DHT22;10761;48.532;8.026;2023-09-12T12:04:50;36.90;1.00
21207;DHT22;10761;48.532;8.026;2023-09-12T12:07:15;37.30;1.00
21207;DHT22;10761;48.532;8.026;2023-09-12T12:09:41;37.70;1.00
21207;DHT22;10761;48.532;8.026;2023-09-12T12:12:11;37.90;1.00
21207;DHT22;10761;48.532;8.026;2023-09-12T12:14:39;38.00;1.00
21207;DHT22;10761;48.532;8.026;2023-09-12T12:17:09;38.10;1.00
21207;DHT22;10761;48.532;8.026;2023-09-12T12:19:35;37.90;1.00
21207;DHT22;10761;48.532;8.026;2023-09-12T12:22:03;37.40;1.00
21207;DHT22;10761;48.532;8.026;2023-09-12T12:24:40;37.30;1.00
21207;DHT22;10761;48.532;8.026;2023-09-12T12:27:06;37.10;1.00
21207;DHT22;10761;48.532;8.026;2023-09-12T12:29:33;36.60;1.00
21207;DHT22;10761;48.532;8.026;2023-09-12T12:32:02;36.10;1.00
21207;DHT22;10761;48.532;8.026;2023-09-12T12:34:30;35.60;1.00
21207;DHT22;10761;48.532;8.026;2023-09-12T12:36:56;35.30;1.00
21207;DHT22;10761;48.532;8.026;2023-09-12T12:39:22;35.50;1.00
21207;DHT22;10761;48.532;8.026;2023-09-12T12:41:54;35.30;1.00
21207;DHT22;10761;48.532;8.026;2023-09-12T12:44:20;35.00;1.00
21207;DHT22;10761;48.532;8.026;2023-09-12T12:46:53;34.70;1.00
21207;DHT22;10761;48.532;8.026;2023-09-12T12:49:20;35.30;1.00
21207;DHT22;10761;48.532;8.026;2023-09-12T12:51:47;35.70;1.00
21207;DHT22;10761;48.532;8.026;2023-09-12T12:54:13;35.80;1.00
21207;DHT22;10761;48.532;8.026;2023-09-12T12:56:39;35.70;1.00
21207;DHT22;10761;48.532;8.026;2023-09-12T12:59:06;36.10;1.00
21207;DHT22;10761;48.532;8.026;2023-09-12T13:01:38;36.30;1.00
21207;DHT22;10761;48.532;8.026;2023-09-12T13:04:08;36.30;1.00
21207;DHT22;10761;48.532;8.026;2023-09-12T13:06:34;36.00;1.00
21207;DHT22;10761;48.532;8.026;2023-09-12T13:09:04;36.10;1.00
21207;DHT22;10761;48.532;8.026;2023-09-12T13:11:31;37.00;1.00
21207;DHT22;10761;48.532;8.026;2023-09-12T13:14:00;37.70;1.00
21207;DHT22;10761;48.532;8.026;2023-09-12T13:16:25;37.80;1.00
21207;DHT22;10761;48.532;8.026;2023-09-12T13:18:51;38.30;1.00
21207;DHT22;10761;48.532;8.026;2023-09-12T13:21:16;38.60;1.00
21207;DHT22;10761;48.532;8.026;2023-09-12T13:23:42;39.30;1.00
21207;DHT22;10761;48.532;8.026;2023-09-12T13:26:09;39.60;1.00
21207;DHT22;10761;48.532;8.026;2023-09-12T13:28:35;39.70;1.00
21207;DHT22;10761;48.532;8.026;2023-09-12T13:31:01;40.40;1.00
21207;DHT22;10761;48.532;8.026;2023-09-12T13:33:27;40.60;1.00
21207;DHT22;10761;48.532;8.026;2023-09-12T13:35:52;40.90;1.00
21207;DHT22;10761;48.532;8.026;2023-09-12T13:38:18;41.20;1.00
21207;DHT22;10761;48.532;8.026;2023-09-12T13:40:45;41.20;1.00
21207;DHT22;10761;48.532;8.026;2023-09-12T13:43:12;41.60;1.00
21207;DHT22;10761;48.532;8.026;2023-09-12T13:45:37;41.80;1.00
21207;DHT22;10761;48.532;8.026;2023-09-12T13:48:04;42.20;1.00
21207;DHT22;10761;48.532;8.026;2023-09-12T13:50:30;42.80;1.00
21207;DHT22;10761;48.532;8.026;2023-09-12T13:53:01;42.80;1.00
21207;DHT22;10761;48.532;8.026;2023-09-12T13:55:35;43.00;1.00
21207;DHT22;10761;48.532;8.026;2023-09-12T13:58:04;43.20;1.00
21207;DHT22;10761;48.532;8.026;2023-09-12T14:00:31;43.30;1.00
21207;DHT22;10761;48.532;8.026;2023-09-12T14:02:57;43.10;1.00
21207;DHT22;10761;48.532;8.026;2023-09-12T14:05:23;43.30;1.00
21207;DHT22;10761;48.532;8.026;2023-09-12T14:07:50;43.10;1.00
21207;DHT22;10761;48.532;8.026;2023-09-12T14:10:16;43.30;1.00
21207;DHT22;10761;48.532;8.026;2023-09-12T14:12:42;42.80;1.00
21207;DHT22;10761;48.532;8.026;2023-09-12T14:15:08;41.40;1.00
21207;DHT22;10761;48.532;8.026;2023-09-12T14:17:34;40.50;1.00
21207;DHT22;10761;48.532;8.026;2023-09-12T14:19:59;40.30;1.00
21207;DHT22;10761;48.532;8.026;2023-09-12T14:22:25;40.40;1.00
21207;DHT22;10761;48.532;8.026;2023-09-12T14:24:51;41.10;1.00
21207;DHT22;10761;48.532;8.026;2023-09-12T14:27:16;41.80;1.00
21207;DHT22;10761;48.532;8.026;2023-09-12T14:29:42;42.70;1.00
21207;DHT22;10761;48.532;8.026;2023-09-12T14:32:11;43.30;1.00
21207;DHT22;10761;48.532;8.026;2023-09-12T14:34:37;43.80;1.00
21207;DHT22;10761;48.532;8.026;2023-09-12T14:37:03;44.20;1.00
21207;DHT22;10761;48.532;8.026;2023-09-12T14:39:29;44.20;1.00
21207;DHT22;10761;48.532;8.026;2023-09-12T14:41:54;44.40;1.00
21207;DHT22;10761;48.532;8.026;2023-09-12T14:44:24;44.30;1.00
21207;DHT22;10761;48.532;8.026;2023-09-12T14:46:49;44.70;1.00
21207;DHT22;10761;48.532;8.026;2023-09-12T14:49:16;45.20;1.00
21207;DHT22;10761;48.532;8.026;2023-09-12T14:51:41;44.70;1.00
21207;DHT22;10761;48.532;8.026;2023-09-12T14:54:07;44.80;1.00
21207;DHT22;10761;48.532;8.026;2023-09-12T14:56:33;44.50;1.00
21207;DHT22;10761;48.532;8.026;2023-09-12T14:59:00;44.60;1.00
21207;DHT22;10761;48.532;8.026;2023-09-12T15:01:25;44.30;1.00
21207;DHT22;10761;48.532;8.026;2023-09-12T15:03:52;43.40;1.00
21207;DHT22;10761;48.532;8.026;2023-09-12T15:06:18;42.50;1.00
21207;DHT22;10761;48.532;8.026;2023-09-12T15:08:43;42.10;1.00
21207;DHT22;10761;48.532;8.026;2023-09-12T15:11:09;42.30;1.00
21207;DHT22;10761;48.532;8.026;2023-09-12T15:13:36;43.00;1.00
21207;DHT22;10761;48.532;8.026;2023-09-12T15:16:02;44.10;1.00
21207;DHT22;10761;48.532;8.026;2023-09-12T15:18:28;44.70;1.00
21207;DHT22;10761;48.532;8.026;2023-09-12T15:20:54;44.70;1.00
21207;DHT22;10761;48.532;8.026;2023-09-12T15:23:19;44.50;1.00
21207;DHT22;10761;48.532;8.026;2023-09-12T15:25:51;44.30;1.00
21207;DHT22;10761;48.532;8.026;2023-09-12T15:28:17;44.90;1.00
21207;DHT22;10761;48.532;8.026;2023-09-12T15:30:43;44.80;1.00
21207;DHT22;10761;48.532;8.026;2023-09-12T15:33:09;45.10;1.00
21207;DHT22;10761;48.532;8.026;2023-09-12T15:35:34;45.40;1.00
21207;DHT22;10761;48.532;8.026;2023-09-12T15:38:00;45.50;1.00
21207;DHT22;10761;48.532;8.026;2023-09-12T15:40:26;44.90;1.00
21207;DHT22;10761;48.532;8.026;2023-09-12T15:42:52;44.50;1.00
21207;DHT22;10761;48.532;8.026;2023-09-12T15:45:18;44.70;1.00
21207;DHT22;10761;48.532;8.026;2023-09-12T15:47:45;45.10;1.00
21207;DHT22;10761;48.532;8.026;2023-09-12T15:50:11;45.40;1.00
21207;DHT22;10761;48.532;8.026;2023-09-12T15:52:37;45.20;1.00